Messwerte Sankt Valentin auf der Haide / Reschenpass

Temperatur

Temperatur
°C
1670076000 15.00 15.00 1
1670079600 16.00 16.00 1
1670083200 17.00 17.00 0
1670086800 18.00 18.00 1
1670090400 19.00 19.00 1
1670094000 20.00 20.00 0
1670097600 21.00 21.00 1
1670101200 22.00 22.00 1
1670104800 23.00 23.00 1
1670108400 0.00 0.00 0
1670112000 1.00 1.00 0
1670115600 2.00 2.00 0
1670119200 3.00 3.00
1670122800 4.00 4.00
1670126400 5.00 5.00 0
1670130000 6.00 6.00
1670133600 7.00 7.00 1
1670137200 8.00 8.00 1
1670140800 9.00 9.00 2
1670144400 10.00 10.00 2
1670148000 11.00 11.00 3
1670151600 12.00 12.00 2
1670155200 13.00 13.00 2
1670158800 14.00 14.00 1

Aktuellste Messwerte

Wettercharakter
Wetter: bedeckt, wenig Regen
Temperatur
1 °C
Feuchtigkeit
93 %
Wind
15 km/hWindrichtung: Südwest
Luftdruck
1009 hPa
Messzeit: 4. Dezember 2022, 15.00Datenquelle: METAR

Weitere Messstationen in der Nähe

Messstation Temperatur Entfernung
Scuol 1.8 °C 19 km
Santa Maria im Münstertal 0.0 °C 20 km
Naluns-Schlivera -2.3 °C 21 km
Buffalora/Ofenpass 0.0 °C 24 km
Davos 0.9 °C 52 km
Berninapass -2.6 °C 55 km
Weissfluhjoch/Davos -3.9 °C 55 km

Wind

Windrichtung Böen Mittelwind
° km/h km/h
1670076000 15.00 14.00 - 15.00 200° 15
1670079600 16.00 15.00 - 16.00 200° 15
1670083200 17.00 16.00 - 17.00 250° 10
1670086800 18.00 17.00 - 18.00 210° 10
1670090400 19.00 18.00 - 19.00 210° 5
1670094000 20.00 19.00 - 20.00 210° 5
1670097600 21.00 20.00 - 21.00 220° 10
1670101200 22.00 21.00 - 22.00 190° 15
1670104800 23.00 22.00 - 23.00 230° 15
1670108400 0.00 23.00 - 0.00 210° 15
1670112000 1.00 0.00 - 1.00 210° 10
1670115600 2.00 1.00 - 2.00 210° 15
1670119200 3.00 2.00 - 3.00
1670122800 4.00 3.00 - 4.00
1670126400 5.00 4.00 - 5.00 240° 15
1670130000 6.00 5.00 - 6.00
1670133600 7.00 6.00 - 7.00 110° 5
1670137200 8.00 7.00 - 8.00 30° 5
1670140800 9.00 8.00 - 9.00 20° 5
1670144400 10.00 9.00 - 10.00 240° 5
1670148000 11.00 10.00 - 11.00 220° 10
1670151600 12.00 11.00 - 12.00 230° 10
1670155200 13.00 12.00 - 13.00 220° 10
1670158800 14.00 13.00 - 14.00 210° 15

Ihre Wetterstation

Fehlt Ihre Wetterstation auf unserem Portal?

Schreiben Sie an network@meteonews.ch

Klima

Wann ist es am wärmsten? Wann regnet es am wenigsten? Unsere Klimadaten geben Auskunft.